sensor_id;sensor_type;location;lat;lon;timestamp;pressure;altitude;pressure_sealevel;temperature;humidity
23229;BME280;11783;50.350;6.576;2023-12-20T00:01:26;96122.88;;;3.92;nan
23229;BME280;11783;50.350;6.576;2023-12-20T00:03:51;96112.94;;;4.01;nan
23229;BME280;11783;50.350;6.576;2023-12-20T00:06:17;96112.53;;;4.04;nan
23229;BME280;11783;50.350;6.576;2023-12-20T00:08:42;96112.13;;;4.13;nan
23229;BME280;11783;50.350;6.576;2023-12-20T00:11:07;96116.19;;;4.09;nan
23229;BME280;11783;50.350;6.576;2023-12-20T00:13:33;96122.44;;;4.08;nan
23229;BME280;11783;50.350;6.576;2023-12-20T00:15:58;96116.97;;;4.16;nan
23229;BME280;11783;50.350;6.576;2023-12-20T00:18:23;96108.91;;;4.11;nan
23229;BME280;11783;50.350;6.576;2023-12-20T00:20:49;96105.66;;;4.16;nan
23229;BME280;11783;50.350;6.576;2023-12-20T00:23:14;96103.41;;;4.19;nan
23229;BME280;11783;50.350;6.576;2023-12-20T00:25:40;96108.31;;;4.09;nan
23229;BME280;11783;50.350;6.576;2023-12-20T00:28:05;96112.16;;;4.00;nan
23229;BME280;11783;50.350;6.576;2023-12-20T00:30:31;96108.09;;;4.11;nan
23229;BME280;11783;50.350;6.576;2023-12-20T00:32:56;96095.34;;;4.14;nan
23229;BME280;11783;50.350;6.576;2023-12-20T00:35:22;96105.66;;;4.09;nan
23229;BME280;11783;50.350;6.576;2023-12-20T00:37:47;96110.13;;;4.02;nan
23229;BME280;11783;50.350;6.576;2023-12-20T00:40:12;96114.78;;;3.93;nan
23229;BME280;11783;50.350;6.576;2023-12-20T00:42:38;96115.78;;;4.06;nan
23229;BME280;11783;50.350;6.576;2023-12-20T00:45:04;96114.97;;;4.05;nan
23229;BME280;11783;50.350;6.576;2023-12-20T00:47:30;96111.72;;;4.03;nan
23229;BME280;11783;50.350;6.576;2023-12-20T00:49:56;96107.28;;;4.10;nan
23229;BME280;11783;50.350;6.576;2023-12-20T00:52:22;96110.50;;;4.06;nan
23229;BME280;11783;50.350;6.576;2023-12-20T00:54:48;96112.16;;;4.00;nan
23229;BME280;11783;50.350;6.576;2023-12-20T00:57:13;96101.22;;;4.03;nan
23229;BME280;11783;50.350;6.576;2023-12-20T00:59:38;96101.03;;;3.98;nan
23229;BME280;11783;50.350;6.576;2023-12-20T01:02:04;96101.03;;;3.91;nan
23229;BME280;11783;50.350;6.576;2023-12-20T01:04:29;96102.88;;;3.91;nan
23229;BME280;11783;50.350;6.576;2023-12-20T01:06:55;96106.28;;;3.98;nan
23229;BME280;11783;50.350;6.576;2023-12-20T01:09:20;96116.00;;;3.91;nan
23229;BME280;11783;50.350;6.576;2023-12-20T01:11:49;96110.34;;;3.94;nan
23229;BME280;11783;50.350;6.576;2023-12-20T01:14:14;96116.00;;;3.98;nan
23229;BME280;11783;50.350;6.576;2023-12-20T01:16:39;96118.84;;;3.96;nan
23229;BME280;11783;50.350;6.576;2023-12-20T01:19:05;96114.97;;;3.99;nan
23229;BME280;11783;50.350;6.576;2023-12-20T01:21:30;96109.94;;;3.97;nan
23229;BME280;11783;50.350;6.576;2023-12-20T01:23:56;96116.19;;;4.03;nan
23229;BME280;11783;50.350;6.576;2023-12-20T01:26:21;96109.91;;;4.04;nan
23229;BME280;11783;50.350;6.576;2023-12-20T01:28:47;96109.50;;;4.00;nan
23229;BME280;11783;50.350;6.576;2023-12-20T01:31:12;96121.03;;;4.06;nan
23229;BME280;11783;50.350;6.576;2023-12-20T01:33:37;96116.19;;;4.03;nan
23229;BME280;11783;50.350;6.576;2023-12-20T01:36:03;96125.47;;;4.05;nan
23229;BME280;11783;50.350;6.576;2023-12-20T01:38:29;96128.72;;;4.07;nan
23229;BME280;11783;50.350;6.576;2023-12-20T01:40:54;96116.78;;;4.05;nan
23229;BME280;11783;50.350;6.576;2023-12-20T01:43:20;96130.75;;;4.12;nan
23229;BME280;11783;50.350;6.576;2023-12-20T01:45:46;96135.41;;;4.10;nan
23229;BME280;11783;50.350;6.576;2023-12-20T01:48:12;96127.91;;;4.13;nan
23229;BME280;11783;50.350;6.576;2023-12-20T01:50:39;96138.81;;;4.17;nan
23229;BME280;11783;50.350;6.576;2023-12-20T01:53:07;96146.09;;;4.08;nan
23229;BME280;11783;50.350;6.576;2023-12-20T01:55:35;96148.72;;;4.08;nan
23229;BME280;11783;50.350;6.576;2023-12-20T01:58:02;96160.28;;;4.07;nan
23229;BME280;11783;50.350;6.576;2023-12-20T02:00:29;96165.94;;;3.98;nan
23229;BME280;11783;50.350;6.576;2023-12-20T02:02:55;96168.38;;;3.79;nan
23229;BME280;11783;50.350;6.576;2023-12-20T02:05:21;96174.84;;;3.63;nan
23229;BME280;11783;50.350;6.576;2023-12-20T02:07:47;96179.69;;;3.67;nan
23229;BME280;11783;50.350;6.576;2023-12-20T02:10:13;96183.53;;;3.57;nan
23229;BME280;11783;50.350;6.576;2023-12-20T02:12:39;96197.44;;;3.45;nan
23229;BME280;11783;50.350;6.576;2023-12-20T02:15:05;96203.09;;;3.42;nan
23229;BME280;11783;50.350;6.576;2023-12-20T02:17:32;96187.75;;;3.39;nan
23229;BME280;11783;50.350;6.576;2023-12-20T02:19:57;96193.53;;;3.21;nan
23229;BME280;11783;50.350;6.576;2023-12-20T02:22:23;96208.50;;;3.20;nan
23229;BME280;11783;50.350;6.576;2023-12-20T02:24:48;96206.25;;;3.17;nan
23229;BME280;11783;50.350;6.576;2023-12-20T02:27:15;96199.97;;;3.12;nan
23229;BME280;11783;50.350;6.576;2023-12-20T02:29:43;96193.88;;;2.98;nan
23229;BME280;11783;50.350;6.576;2023-12-20T02:32:08;96203.53;;;2.97;nan
23229;BME280;11783;50.350;6.576;2023-12-20T02:34:34;96199.94;;;2.98;nan
23229;BME280;11783;50.350;6.576;2023-12-20T02:36:59;96199.75;;;3.00;nan
23229;BME280;11783;50.350;6.576;2023-12-20T02:39:25;96195.63;;;2.84;nan
23229;BME280;11783;50.350;6.576;2023-12-20T02:41:50;96201.72;;;2.91;nan
23229;BME280;11783;50.350;6.576;2023-12-20T02:44:16;96203.09;;;2.87;nan
23229;BME280;11783;50.350;6.576;2023-12-20T02:46:41;96193.75;;;2.78;nan
23229;BME280;11783;50.350;6.576;2023-12-20T02:49:07;96209.56;;;2.85;nan
23229;BME280;11783;50.350;6.576;2023-12-20T02:51:32;96214.19;;;2.83;nan
23229;BME280;11783;50.350;6.576;2023-12-20T02:53:58;96203.28;;;2.79;nan
23229;BME280;11783;50.350;6.576;2023-12-20T02:56:23;96213.13;;;2.77;nan
23229;BME280;11783;50.350;6.576;2023-12-20T02:58:49;96210.28;;;2.72;nan
23229;BME280;11783;50.350;6.576;2023-12-20T03:01:14;96219.66;;;2.88;nan
23229;BME280;11783;50.350;6.576;2023-12-20T03:03:40;96212.78;;;2.87;nan
23229;BME280;11783;50.350;6.576;2023-12-20T03:06:05;96221.28;;;2.89;nan
23229;BME280;11783;50.350;6.576;2023-12-20T03:08:31;96223.91;;;2.89;nan
23229;BME280;11783;50.350;6.576;2023-12-20T03:10:56;96215.22;;;2.88;nan
23229;BME280;11783;50.350;6.576;2023-12-20T03:13:21;96202.09;;;2.88;nan
23229;BME280;11783;50.350;6.576;2023-12-20T03:15:47;96207.34;;;2.82;nan
23229;BME280;11783;50.350;6.576;2023-12-20T03:18:12;96209.34;;;2.80;nan
23229;BME280;11783;50.350;6.576;2023-12-20T03:20:38;96213.38;;;2.82;nan
23229;BME280;11783;50.350;6.576;2023-12-20T03:23:03;96209.50;;;2.78;nan
23229;BME280;11783;50.350;6.576;2023-12-20T03:25:29;96201.22;;;2.74;nan
23229;BME280;11783;50.350;6.576;2023-12-20T03:27:55;96203.66;;;2.76;nan
23229;BME280;11783;50.350;6.576;2023-12-20T03:30:20;96207.88;;;2.77;nan
23229;BME280;11783;50.350;6.576;2023-12-20T03:32:46;96209.75;;;2.83;nan
23229;BME280;11783;50.350;6.576;2023-12-20T03:35:12;96209.38;;;2.86;nan
23229;BME280;11783;50.350;6.576;2023-12-20T03:37:37;96202.91;;;2.82;nan
23229;BME280;11783;50.350;6.576;2023-12-20T03:40:03;96198.47;;;2.89;nan
23229;BME280;11783;50.350;6.576;2023-12-20T03:42:29;96191.53;;;2.75;nan
23229;BME280;11783;50.350;6.576;2023-12-20T03:44:54;96202.81;;;2.69;nan
23229;BME280;11783;50.350;6.576;2023-12-20T03:47:20;96188.09;;;2.74;nan
23229;BME280;11783;50.350;6.576;2023-12-20T03:49:45;96192.94;;;2.78;nan
23229;BME280;11783;50.350;6.576;2023-12-20T03:52:11;96197.66;;;2.89;nan
23229;BME280;11783;50.350;6.576;2023-12-20T03:54:37;96195.81;;;2.83;nan
23229;BME280;11783;50.350;6.576;2023-12-20T03:57:03;96185.47;;;2.74;nan
23229;BME280;11783;50.350;6.576;2023-12-20T03:59:28;96188.34;;;2.80;nan
23229;BME280;11783;50.350;6.576;2023-12-20T04:01:54;96190.72;;;2.74;nan
23229;BME280;11783;50.350;6.576;2023-12-20T04:04:19;96203.84;;;2.74;nan
23229;BME280;11783;50.350;6.576;2023-12-20T04:06:45;96197.34;;;2.64;nan
23229;BME280;11783;50.350;6.576;2023-12-20T04:09:10;96200.59;;;2.66;nan
23229;BME280;11783;50.350;6.576;2023-12-20T04:11:39;96203.59;;;2.63;nan
23229;BME280;11783;50.350;6.576;2023-12-20T04:14:04;96207.44;;;2.60;nan
23229;BME280;11783;50.350;6.576;2023-12-20T04:16:30;96204.63;;;2.68;nan
23229;BME280;11783;50.350;6.576;2023-12-20T04:18:55;96204.03;;;2.73;nan
23229;BME280;11783;50.350;6.576;2023-12-20T04:21:21;96209.50;;;2.78;nan
23229;BME280;11783;50.350;6.576;2023-12-20T04:23:46;96201.63;;;2.71;nan
23229;BME280;11783;50.350;6.576;2023-12-20T04:26:12;96189.31;;;2.72;nan
23229;BME280;11783;50.350;6.576;2023-12-20T04:28:37;96191.94;;;2.72;nan
23229;BME280;11783;50.350;6.576;2023-12-20T04:31:03;96191.53;;;2.75;nan
23229;BME280;11783;50.350;6.576;2023-12-20T04:33:28;96193.75;;;2.78;nan
23229;BME280;11783;50.350;6.576;2023-12-20T04:35:54;96189.31;;;2.72;nan
23229;BME280;11783;50.350;6.576;2023-12-20T04:38:19;96197.56;;;2.69;nan
23229;BME280;11783;50.350;6.576;2023-12-20T04:40:45;96197.78;;;2.74;nan
23229;BME280;11783;50.350;6.576;2023-12-20T04:43:10;96196.38;;;2.78;nan
23229;BME280;11783;50.350;6.576;2023-12-20T04:45:36;96190.47;;;2.63;nan
23229;BME280;11783;50.350;6.576;2023-12-20T04:48:02;96201.59;;;2.65;nan
23229;BME280;11783;50.350;6.576;2023-12-20T04:50:27;96207.44;;;2.67;nan
23229;BME280;11783;50.350;6.576;2023-12-20T04:52:53;96213.72;;;2.66;nan
23229;BME280;11783;50.350;6.576;2023-12-20T04:55:19;96217.16;;;2.73;nan
23229;BME280;11783;50.350;6.576;2023-12-20T04:57:44;96202.59;;;2.64;nan
23229;BME280;11783;50.350;6.576;2023-12-20T05:00:10;96204.22;;;2.65;nan
23229;BME280;11783;50.350;6.576;2023-12-20T05:02:36;96202.41;;;2.65;nan
23229;BME280;11783;50.350;6.576;2023-12-20T05:05:02;96193.16;;;2.76;nan
23229;BME280;11783;50.350;6.576;2023-12-20T05:07:27;96202.84;;;2.76;nan
23229;BME280;11783;50.350;6.576;2023-12-20T05:09:52;96211.31;;;2.71;nan
23229;BME280;11783;50.350;6.576;2023-12-20T05:12:18;96216.94;;;2.68;nan
23229;BME280;11783;50.350;6.576;2023-12-20T05:14:44;96206.84;;;2.65;nan
23229;BME280;11783;50.350;6.576;2023-12-20T05:17:09;96218.75;;;2.67;nan
23229;BME280;11783;50.350;6.576;2023-12-20T05:19:35;96218.19;;;2.79;nan
23229;BME280;11783;50.350;6.576;2023-12-20T05:22:01;96222.59;;;2.71;nan
23229;BME280;11783;50.350;6.576;2023-12-20T05:24:27;96212.72;;;2.73;nan
23229;BME280;11783;50.350;6.576;2023-12-20T05:26:53;96213.53;;;2.74;nan
23229;BME280;11783;50.350;6.576;2023-12-20T05:29:18;96225.66;;;2.75;nan
23229;BME280;11783;50.350;6.576;2023-12-20T05:31:44;96220.41;;;2.75;nan
23229;BME280;11783;50.350;6.576;2023-12-20T05:34:09;96225.09;;;2.80;nan
23229;BME280;11783;50.350;6.576;2023-12-20T05:36:35;96234.13;;;2.77;nan
23229;BME280;11783;50.350;6.576;2023-12-20T05:39:01;96237.00;;;2.82;nan
23229;BME280;11783;50.350;6.576;2023-12-20T05:41:28;96232.38;;;2.84;nan
23229;BME280;11783;50.350;6.576;2023-12-20T05:43:54;96226.50;;;2.82;nan
23229;BME280;11783;50.350;6.576;2023-12-20T05:46:19;96221.66;;;2.79;nan
23229;BME280;11783;50.350;6.576;2023-12-20T05:48:46;96228.28;;;2.75;nan
23229;BME280;11783;50.350;6.576;2023-12-20T05:51:12;96219.66;;;2.81;nan
23229;BME280;11783;50.350;6.576;2023-12-20T05:53:38;96224.63;;;2.69;nan
23229;BME280;11783;50.350;6.576;2023-12-20T05:56:04;96223.41;;;2.72;nan
23229;BME280;11783;50.350;6.576;2023-12-20T05:58:29;96226.25;;;2.70;nan
23229;BME280;11783;50.350;6.576;2023-12-20T06:00:55;96225.44;;;2.77;nan
23229;BME280;11783;50.350;6.576;2023-12-20T06:03:20;96218.19;;;2.79;nan
23229;BME280;11783;50.350;6.576;2023-12-20T06:05:46;96215.22;;;2.82;nan
23229;BME280;11783;50.350;6.576;2023-12-20T06:08:11;96213.38;;;2.82;nan
23229;BME280;11783;50.350;6.576;2023-12-20T06:10:36;96219.44;;;2.83;nan
23229;BME280;11783;50.350;6.576;2023-12-20T06:13:02;96234.38;;;2.82;nan
23229;BME280;11783;50.350;6.576;2023-12-20T06:15:29;96226.25;;;2.77;nan
23229;BME280;11783;50.350;6.576;2023-12-20T06:17:54;96224.66;;;2.76;nan
23229;BME280;11783;50.350;6.576;2023-12-20T06:20:20;96227.84;;;2.71;nan
23229;BME280;11783;50.350;6.576;2023-12-20T06:22:46;96232.91;;;2.73;nan
23229;BME280;11783;50.350;6.576;2023-12-20T06:25:11;96238.00;;;2.81;nan
23229;BME280;11783;50.350;6.576;2023-12-20T06:27:37;96245.28;;;2.79;nan
23229;BME280;11783;50.350;6.576;2023-12-20T06:30:03;96244.81;;;2.69;nan
23229;BME280;11783;50.350;6.576;2023-12-20T06:32:28;96240.16;;;2.71;nan
23229;BME280;11783;50.350;6.576;2023-12-20T06:34:54;96229.34;;;2.81;nan
23229;BME280;11783;50.350;6.576;2023-12-20T06:37:20;96239.16;;;2.72;nan
23229;BME280;11783;50.350;6.576;2023-12-20T06:39:45;96237.16;;;2.74;nan
23229;BME280;11783;50.350;6.576;2023-12-20T06:42:12;96241.59;;;2.73;nan
23229;BME280;11783;50.350;6.576;2023-12-20T06:44:38;96249.66;;;2.72;nan
23229;BME280;11783;50.350;6.576;2023-12-20T06:47:04;96255.53;;;2.74;nan
23229;BME280;11783;50.350;6.576;2023-12-20T06:49:30;96247.31;;;2.84;nan
23229;BME280;11783;50.350;6.576;2023-12-20T06:51:55;96255.94;;;2.78;nan
23229;BME280;11783;50.350;6.576;2023-12-20T06:54:20;96253.50;;;2.76;nan
23229;BME280;11783;50.350;6.576;2023-12-20T06:56:46;96250.06;;;2.76;nan
23229;BME280;11783;50.350;6.576;2023-12-20T06:59:11;96259.44;;;2.85;nan
23229;BME280;11783;50.350;6.576;2023-12-20T07:01:37;96249.75;;;2.85;nan
23229;BME280;11783;50.350;6.576;2023-12-20T07:04:03;96246.53;;;2.90;nan
23229;BME280;11783;50.350;6.576;2023-12-20T07:06:28;96246.13;;;2.86;nan
23229;BME280;11783;50.350;6.576;2023-12-20T07:08:54;96263.25;;;2.82;nan
23229;BME280;11783;50.350;6.576;2023-12-20T07:11:19;96257.41;;;2.80;nan
23229;BME280;11783;50.350;6.576;2023-12-20T07:13:45;96258.81;;;2.83;nan
23229;BME280;11783;50.350;6.576;2023-12-20T07:16:10;96260.84;;;2.87;nan
23229;BME280;11783;50.350;6.576;2023-12-20T07:18:36;96265.88;;;2.82;nan
23229;BME280;11783;50.350;6.576;2023-12-20T07:21:01;96268.50;;;2.82;nan
23229;BME280;11783;50.350;6.576;2023-12-20T07:23:27;96264.00;;;2.76;nan
23229;BME280;11783;50.350;6.576;2023-12-20T07:25:52;96269.72;;;2.80;nan
23229;BME280;11783;50.350;6.576;2023-12-20T07:28:18;96264.25;;;2.81;nan
23229;BME280;11783;50.350;6.576;2023-12-20T07:30:43;96280.38;;;2.78;nan
23229;BME280;11783;50.350;6.576;2023-12-20T07:33:09;96278.56;;;2.79;nan
23229;BME280;11783;50.350;6.576;2023-12-20T07:35:35;96275.91;;;2.72;nan
23229;BME280;11783;50.350;6.576;2023-12-20T07:38:00;96270.53;;;2.80;nan
23229;BME280;11783;50.350;6.576;2023-12-20T07:40:25;96269.13;;;2.84;nan
23229;BME280;11783;50.350;6.576;2023-12-20T07:42:51;96272.59;;;2.91;nan
23229;BME280;11783;50.350;6.576;2023-12-20T07:45:16;96268.72;;;2.87;nan
23229;BME280;11783;50.350;6.576;2023-12-20T07:47:42;96268.53;;;2.89;nan
23229;BME280;11783;50.350;6.576;2023-12-20T07:50:07;96269.97;;;2.91;nan
23229;BME280;11783;50.350;6.576;2023-12-20T07:52:33;96274.78;;;2.88;nan
23229;BME280;11783;50.350;6.576;2023-12-20T07:54:58;96281.47;;;2.90;nan
23229;BME280;11783;50.350;6.576;2023-12-20T07:57:24;96289.31;;;2.84;nan
23229;BME280;11783;50.350;6.576;2023-12-20T07:59:49;96281.03;;;2.87;nan
23229;BME280;11783;50.350;6.576;2023-12-20T08:02:14;96293.38;;;2.93;nan
23229;BME280;11783;50.350;6.576;2023-12-20T08:04:40;96291.56;;;2.93;nan
23229;BME280;11783;50.350;6.576;2023-12-20T08:07:06;96298.41;;;2.88;nan
23229;BME280;11783;50.350;6.576;2023-12-20T08:09:32;96299.44;;;2.93;nan
23229;BME280;11783;50.350;6.576;2023-12-20T08:11:58;96288.13;;;2.93;nan
23229;BME280;11783;50.350;6.576;2023-12-20T08:14:25;96290.53;;;2.88;nan
23229;BME280;11783;50.350;6.576;2023-12-20T08:16:50;96295.25;;;2.99;nan
23229;BME280;11783;50.350;6.576;2023-12-20T08:19:16;96302.25;;;2.92;nan
23229;BME280;11783;50.350;6.576;2023-12-20T08:21:42;96295.56;;;2.83;nan
23229;BME280;11783;50.350;6.576;2023-12-20T08:24:07;96290.72;;;2.80;nan
23229;BME280;11783;50.350;6.576;2023-12-20T08:26:33;96300.41;;;2.86;nan
23229;BME280;11783;50.350;6.576;2023-12-20T08:28:59;96301.25;;;2.93;nan
23229;BME280;11783;50.350;6.576;2023-12-20T08:31:24;96307.25;;;2.80;nan
23229;BME280;11783;50.350;6.576;2023-12-20T08:33:51;96299.75;;;2.77;nan
23229;BME280;11783;50.350;6.576;2023-12-20T08:36:18;96305.25;;;2.82;nan
23229;BME280;11783;50.350;6.576;2023-12-20T08:38:44;96311.06;;;2.78;nan
23229;BME280;11783;50.350;6.576;2023-12-20T08:41:10;96303.84;;;2.86;nan
23229;BME280;11783;50.350;6.576;2023-12-20T08:43:35;96311.97;;;2.91;nan
23229;BME280;11783;50.350;6.576;2023-12-20T08:46:01;96299.81;;;2.84;nan
23229;BME280;11783;50.350;6.576;2023-12-20T08:48:28;96305.88;;;2.84;nan
23229;BME280;11783;50.350;6.576;2023-12-20T08:50:53;96306.09;;;2.89;nan
23229;BME280;11783;50.350;6.576;2023-12-20T08:53:19;96300.41;;;2.86;nan
23229;BME280;11783;50.350;6.576;2023-12-20T08:55:45;96298.22;;;2.89;nan
23229;BME280;11783;50.350;6.576;2023-12-20T08:58:11;96295.97;;;2.86;nan
23229;BME280;11783;50.350;6.576;2023-12-20T09:00:36;96289.94;;;2.92;nan
23229;BME280;11783;50.350;6.576;2023-12-20T09:03:02;96290.16;;;2.91;nan
23229;BME280;11783;50.350;6.576;2023-12-20T09:05:28;96297.25;;;2.97;nan
23229;BME280;11783;50.350;6.576;2023-12-20T09:07:53;96308.28;;;2.86;nan
23229;BME280;11783;50.350;6.576;2023-12-20T09:10:19;96307.50;;;2.85;nan
23229;BME280;11783;50.350;6.576;2023-12-20T09:12:51;96301.25;;;2.93;nan
23229;BME280;11783;50.350;6.576;2023-12-20T09:15:21;96305.91;;;2.91;nan
23229;BME280;11783;50.350;6.576;2023-12-20T09:17:47;96302.13;;;3.00;nan
23229;BME280;11783;50.350;6.576;2023-12-20T09:20:12;96292.03;;;3.03;nan
23229;BME280;11783;50.350;6.576;2023-12-20T09:22:39;96295.50;;;3.11;nan
23229;BME280;11783;50.350;6.576;2023-12-20T09:25:05;96291.66;;;3.07;nan
23229;BME280;11783;50.350;6.576;2023-12-20T09:27:30;96292.25;;;3.09;nan
23229;BME280;11783;50.350;6.576;2023-12-20T09:29:56;96293.00;;;2.96;nan
23229;BME280;11783;50.350;6.576;2023-12-20T09:32:22;96310.22;;;3.05;nan
23229;BME280;11783;50.350;6.576;2023-12-20T09:34:47;96292.63;;;2.99;nan
23229;BME280;11783;50.350;6.576;2023-12-20T09:37:13;96308.44;;;3.12;nan
23229;BME280;11783;50.350;6.576;2023-12-20T09:39:38;96302.22;;;3.20;nan
23229;BME280;11783;50.350;6.576;2023-12-20T09:42:04;96295.91;;;3.14;nan
23229;BME280;11783;50.350;6.576;2023-12-20T09:44:31;96291.53;;;3.21;nan
23229;BME280;11783;50.350;6.576;2023-12-20T09:46:57;96304.25;;;3.18;nan
23229;BME280;11783;50.350;6.576;2023-12-20T09:49:23;96302.38;;;3.12;nan
23229;BME280;11783;50.350;6.576;2023-12-20T09:51:50;96295.97;;;3.21;nan
23229;BME280;11783;50.350;6.576;2023-12-20T09:54:17;96297.59;;;3.28;nan
23229;BME280;11783;50.350;6.576;2023-12-20T09:56:44;96299.41;;;3.21;nan
23229;BME280;11783;50.350;6.576;2023-12-20T09:59:09;96302.19;;;3.13;nan
23229;BME280;11783;50.350;6.576;2023-12-20T10:01:35;96299.59;;;3.20;nan
23229;BME280;11783;50.350;6.576;2023-12-20T10:04:05;96296.38;;;3.18;nan
23229;BME280;11783;50.350;6.576;2023-12-20T10:06:37;96287.69;;;3.17;nan
23229;BME280;11783;50.350;6.576;2023-12-20T10:09:02;96289.84;;;3.14;nan
23229;BME280;11783;50.350;6.576;2023-12-20T10:11:29;96289.25;;;3.12;nan
23229;BME280;11783;50.350;6.576;2023-12-20T10:13:59;96296.59;;;3.23;nan
23229;BME280;11783;50.350;6.576;2023-12-20T10:16:28;96291.94;;;3.18;nan
23229;BME280;11783;50.350;6.576;2023-12-20T10:18:54;96278.19;;;3.16;nan
23229;BME280;11783;50.350;6.576;2023-12-20T10:21:21;96290.44;;;3.09;nan
23229;BME280;11783;50.350;6.576;2023-12-20T10:23:47;96297.75;;;3.14;nan
23229;BME280;11783;50.350;6.576;2023-12-20T10:26:22;96304.03;;;3.19;nan
23229;BME280;11783;50.350;6.576;2023-12-20T10:28:56;96295.28;;;3.06;nan
23229;BME280;11783;50.350;6.576;2023-12-20T10:31:33;96291.47;;;3.08;nan
23229;BME280;11783;50.350;6.576;2023-12-20T10:34:00;96289.25;;;3.12;nan
23229;BME280;11783;50.350;6.576;2023-12-20T10:36:27;96288.63;;;3.10;nan
23229;BME280;11783;50.350;6.576;2023-12-20T10:38:54;96287.03;;;3.15;nan
23229;BME280;11783;50.350;6.576;2023-12-20T10:41:25;96285.81;;;3.11;nan
23229;BME280;11783;50.350;6.576;2023-12-20T10:43:54;96282.59;;;3.16;nan
23229;BME280;11783;50.350;6.576;2023-12-20T10:46:21;96280.94;;;3.08;nan
23229;BME280;11783;50.350;6.576;2023-12-20T10:48:48;96276.97;;;3.19;nan
23229;BME280;11783;50.350;6.576;2023-12-20T10:51:17;96277.53;;;3.14;nan
23229;BME280;11783;50.350;6.576;2023-12-20T10:53:43;96272.47;;;3.13;nan
23229;BME280;11783;50.350;6.576;2023-12-20T10:56:11;96272.06;;;3.09;nan
23229;BME280;11783;50.350;6.576;2023-12-20T10:58:41;96272.72;;;3.18;nan
23229;BME280;11783;50.350;6.576;2023-12-20T11:01:08;96266.22;;;3.14;nan
23229;BME280;11783;50.350;6.576;2023-12-20T11:03:35;96267.22;;;3.13;nan
23229;BME280;11783;50.350;6.576;2023-12-20T11:08:53;96254.75;;;3.21;nan
23229;BME280;11783;50.350;6.576;2023-12-20T11:11:34;96248.72;;;3.27;nan
23229;BME280;11783;50.350;6.576;2023-12-20T11:14:10;96257.59;;;3.20;nan
23229;BME280;11783;50.350;6.576;2023-12-20T11:16:38;96247.09;;;3.26;nan
23229;BME280;11783;50.350;6.576;2023-12-20T11:19:07;96258.19;;;3.22;nan
23229;BME280;11783;50.350;6.576;2023-12-20T11:21:32;96255.78;;;3.20;nan
23229;BME280;11783;50.350;6.576;2023-12-20T11:23:59;96253.56;;;3.24;nan
23229;BME280;11783;50.350;6.576;2023-12-20T11:26:28;96255.38;;;3.23;nan
23229;BME280;11783;50.350;6.576;2023-12-20T11:28:54;96270.13;;;3.24;nan
23229;BME280;11783;50.350;6.576;2023-12-20T11:31:20;96264.28;;;3.29;nan
23229;BME280;11783;50.350;6.576;2023-12-20T11:33:46;96266.69;;;3.30;nan
23229;BME280;11783;50.350;6.576;2023-12-20T11:36:18;96262.06;;;3.32;nan
23229;BME280;11783;50.350;6.576;2023-12-20T11:38:55;96262.91;;;3.40;nan
23229;BME280;11783;50.350;6.576;2023-12-20T11:41:23;96258.25;;;3.35;nan
23229;BME280;11783;50.350;6.576;2023-12-20T11:43:52;96258.63;;;3.32;nan
23229;BME280;11783;50.350;6.576;2023-12-20T11:46:18;96258.00;;;3.30;nan
23229;BME280;11783;50.350;6.576;2023-12-20T11:48:44;96253.16;;;3.33;nan
23229;BME280;11783;50.350;6.576;2023-12-20T11:51:10;96244.06;;;3.29;nan
23229;BME280;11783;50.350;6.576;2023-12-20T11:53:36;96247.34;;;3.38;nan
23229;BME280;11783;50.350;6.576;2023-12-20T11:56:03;96234.63;;;3.35;nan
23229;BME280;11783;50.350;6.576;2023-12-20T11:58:29;96233.78;;;3.34;nan
23229;BME280;11783;50.350;6.576;2023-12-20T12:00:55;96231.78;;;3.37;nan
23229;BME280;11783;50.350;6.576;2023-12-20T12:03:21;96240.84;;;3.34;nan
23229;BME280;11783;50.350;6.576;2023-12-20T12:05:49;96229.94;;;3.30;nan
23229;BME280;11783;50.350;6.576;2023-12-20T12:08:16;96234.16;;;3.25;nan
23229;BME280;11783;50.350;6.576;2023-12-20T12:10:43;96232.34;;;3.32;nan
23229;BME280;11783;50.350;6.576;2023-12-20T12:13:09;96226.34;;;3.38;nan
23229;BME280;11783;50.350;6.576;2023-12-20T12:15:36;96222.28;;;3.36;nan
23229;BME280;11783;50.350;6.576;2023-12-20T12:18:02;96219.66;;;3.42;nan
23229;BME280;11783;50.350;6.576;2023-12-20T12:20:27;96219.06;;;3.47;nan
23229;BME280;11783;50.350;6.576;2023-12-20T12:23:05;96215.63;;;3.46;nan
23229;BME280;11783;50.350;6.576;2023-12-20T12:25:34;96220.47;;;3.43;nan
23229;BME280;11783;50.350;6.576;2023-12-20T12:28:00;96205.72;;;3.48;nan
23229;BME280;11783;50.350;6.576;2023-12-20T12:30:26;96210.56;;;3.45;nan
23229;BME280;11783;50.350;6.576;2023-12-20T12:32:56;96210.22;;;3.54;nan
23229;BME280;11783;50.350;6.576;2023-12-20T12:35:22;96207.75;;;3.46;nan
23229;BME280;11783;50.350;6.576;2023-12-20T12:37:48;96205.31;;;3.51;nan
23229;BME280;11783;50.350;6.576;2023-12-20T12:40:15;96198.09;;;3.53;nan
23229;BME280;11783;50.350;6.576;2023-12-20T12:42:42;96187.16;;;3.56;nan
23229;BME280;11783;50.350;6.576;2023-12-20T12:45:09;96188.59;;;3.59;nan
23229;BME280;11783;50.350;6.576;2023-12-20T12:47:35;96183.69;;;3.49;nan
23229;BME280;11783;50.350;6.576;2023-12-20T12:50:00;96178.06;;;3.59;nan
23229;BME280;11783;50.350;6.576;2023-12-20T12:52:26;96175.84;;;3.56;nan
23229;BME280;11783;50.350;6.576;2023-12-20T12:54:52;96171.16;;;3.51;nan
23229;BME280;11783;50.350;6.576;2023-12-20T12:57:18;96172.41;;;3.62;nan
23229;BME280;11783;50.350;6.576;2023-12-20T12:59:44;96171.00;;;3.66;nan
23229;BME280;11783;50.350;6.576;2023-12-20T13:02:12;96167.16;;;3.55;nan
23229;BME280;11783;50.350;6.576;2023-12-20T13:04:39;96170.78;;;3.61;nan
23229;BME280;11783;50.350;6.576;2023-12-20T13:07:05;96168.56;;;3.58;nan
23229;BME280;11783;50.350;6.576;2023-12-20T13:09:31;96164.31;;;3.63;nan
23229;BME280;11783;50.350;6.576;2023-12-20T13:11:57;96159.09;;;3.77;nan
23229;BME280;11783;50.350;6.576;2023-12-20T13:14:22;96146.56;;;3.72;nan
23229;BME280;11783;50.350;6.576;2023-12-20T13:16:48;96154.44;;;3.79;nan
23229;BME280;11783;50.350;6.576;2023-12-20T13:19:13;96155.84;;;3.75;nan
23229;BME280;11783;50.350;6.576;2023-12-20T13:21:39;96150.38;;;3.70;nan
23229;BME280;11783;50.350;6.576;2023-12-20T13:24:05;96151.59;;;3.74;nan
23229;BME280;11783;50.350;6.576;2023-12-20T13:26:31;96143.69;;;3.67;nan
23229;BME280;11783;50.350;6.576;2023-12-20T13:28:56;96139.66;;;3.71;nan